Valley 5000
Fort Collins, Colorado, 08/18/2017
Race Scored by: RUNLIMITED LLC,
Results posted on RunlimitedFC.com

************************
* OVERALL RACE RESULTS *
************************

Place Div/Tot Bib # Name Age Sex time Pace
===== ======== ===== ============================ === === ======= =====
1 1/9 365 Brock Laue 27 M 16:38 5:21
2 1/18 152 Dan Goding 40 M 17:12 5:33
3 1/11 221 David Roeske 36 M 17:59 5:48
4 1/21 317 Craig Person 53 M 19:37 6:19
5 1/29 320 Erika Joiner 30 F 19:46 6:22
6 1/9 329 Cadence Lapp 13 F 20:22 6:33
7 2/18 250 Troy Wolf 47 M 20:25 6:35
8 1/4 336 Micah Hernandez 19 M 20:44 6:41
9 2/4 334 Kenn Sethre 17 M 20:58 6:45
10 2/21 129 Richard Denning 56 M 20:58 6:45
11 2/9 332 Caleb Hernandez 23 M 21:10 6:49
12 3/21 254 Bryce Brady 50 M 21:12 6:50
13 4/21 327 Chris Benton 58 M 21:14 6:50
14 2/11 339 Benjamin Ryzinski 30 M 21:24 6:53
15 1/11 206 Coltyn Nichols 13 M 21:33 6:56
16 3/11 257 Adam Darling 35 M 21:35 6:57
17 1/3 117 Levi Daly 6 M 21:43 7:00
18 2/9 134 Brooklyn Ewert 12 F 21:53 7:03
19 3/18 136 Nathan Ewert 44 M 22:07 7:07
20 1/18 222 John Roeske 68 M 22:11 7:09
21 3/9 368 Sam Foster 25 M 22:12 7:09
22 3/9 124 Emma Deason 12 F 22:12 7:09
23 4/9 367 Casey Anderson 25 M 22:15 7:10
24 5/9 273 Jeff Grotenhuis 24 M 22:18 7:11
25 2/29 276 Paula Hogue 31 F 22:22 7:12
26 4/9 203 Camryn Nichols 15 F 22:33 7:16
27 1/15 168 Christian Howe 9 M 22:39 7:18
28 6/9 248 Kevin Wagner 25 M 22:50 7:21
29 5/21 153 Todd Grauvogl 53 M 22:51 7:21
30 4/11 309 Chris Meyer 37 M 22:53 7:22
31 5/11 321 Daniel Joiner 31 M 22:59 7:24
32 6/11 325 David Anberson 39 M 23:12 7:28
33 1/8 338 Reese Morgan 9 F 23:14 7:29
34 4/18 342 Adam Morgan 41 M 23:15 7:29
35 2/18 202 Ben Nell 60 M 23:23 7:32
36 2/11 310 Jacob Bonnek 15 M 23:29 7:34
37 1/29 363 Amy Hayman 44 F 23:29 7:34
38 3/11 280 Brady Kennison 12 M 23:31 7:35
39 2/15 270 Kellen Engelhardt 11 M 23:48 7:40
40 5/18 283 Kyle Kingrey 44 M 24:01 7:44
41 5/9 330 Kiarra Lapp 13 F 24:07 7:46
42 2/29 344 Michele Trujillo-Veit 43 F 24:13 7:48
43 6/21 2295 Mark Vaughn 57 M 24:24 7:52
44 3/29 245 Kristin Vanoverschelde 36 F 24:34 7:55
45 4/29 183 Tracy Lyon 38 F 24:36 7:56
46 3/18 343 Michael Carmon 62 M 24:41 7:57
47 6/9 210 Ally Padilla 13 F 25:00 8:03
48 3/15 246 Danny Verderaime 10 M 25:05 8:05
49 1/15 337 Don Van Dell 75 M 25:13 8:07
50 1/9 112 Anna Clauson 24 F 25:18 8:09
51 2/15 194 Blake Mills 70 M 25:28 8:12
52 7/21 353 Floyd Foneannon 55 M 25:35 8:14
53 7/9 361 Zoanna Goar 13 F 25:53 8:20
54 6/18 109 Jye Kai Chang 46 M 25:55 8:21
55 7/18 182 Ryan Lessman 44 M 26:01 8:23
56 5/29 354 Austin Pettingill 36 F 26:04 8:24
57 2/9 218 Julie Peterson 27 F 26:06 8:24
58 8/21 351 Gary Clauson 58 M 26:17 8:28
59 3/29 236 Rachel Sundheim 44 F 26:30 8:32
60 7/11 348 Josh Lopez 32 M 26:32 8:33
61 6/29 2298 Amberley Vogt 31 F 26:49 8:38
62 3/9 2297 Aimey Vogt 27 F 26:50 8:39
63 1/16 159 Jennifer Hanna 56 F 26:54 8:40
64 7/29 296 Bri Ramberg 30 F 27:02 8:42
65 9/21 279 Timothy Jones 56 M 27:26 8:50
66 2/8 235 Anna Sundheim 11 F 27:31 8:52
67 10/21 324 Tom Clinkenbeard 57 M 27:35 8:53
68 11/21 360 Mike Goar 58 M 27:38 8:54
69 8/11 340 Jacob Czapeczka 32 M 27:45 8:56
70 4/29 252 Kim Zwickle 45 F 27:49 8:57
71 4/18 326 Anthony C Hernandez 61 M 27:53 8:59
72 4/15 300 Riley Suarez 11 M 27:56 9:00
73 2/16 278 Kristin Jones 50 F 27:57 9:00
74 12/21 357 Tracy Hogue 59 M 27:58 9:00
75 8/18 156 Joseph Grim 40 M 28:07 9:03
76 1/1 157 Eloise Grim 5 F 28:07 9:03
77 5/29 155 Frederique Grim 41 F 28:07 9:03
78 4/9 228 Alexandra Shockey 28 F 28:08 9:04
79 3/15 214 Max Peters 70 M 28:10 9:04
80 8/29 193 Tania Meyer 34 F 28:16 9:06
81 9/29 369 Brianne Smith 34 F 28:16 9:06
82 10/29 346 Katie Robinson 39 F 28:49 9:17
83 5/18 223 Bill Ruzinsky 62 M 28:53 9:18
84 11/29 260 Kari Lynch 30 F 29:00 9:20
85 13/21 160 Steve Hanna 56 M 29:03 9:21
86 4/11 256 Bryson Cordova 12 M 29:05 9:22
87 14/21 242 Paul Vanderborgt 56 M 29:29 9:30
88 3/16 298 Peggy Schmitt 58 F 29:35 9:32
89 6/29 238 Ashlee Taylor 40 F 30:29 9:49
90 9/18 259 John Elliott 45 M 30:35 9:51
91 4/15 208 Fred Ohrn 70 M 30:46 9:54
92 10/18 333 Erik Sethre 48 M 30:59 9:59
93 5/15 292 Isaac Morales 11 M 31:10 10:02
94 15/21 263 Richard Miodonski 50 M 31:11 10:03
95 12/29 271 Alyssa Gibbons 39 F 31:12 10:03
96 6/15 286 Karsten Lewis 11 M 31:16 10:04
97 6/18 2296 Bob Danielson 67 M 31:20 10:05
98 3/8 287 Samantha Lewis 10 F 31:23 10:06
99 7/29 319 Sara Quale 47 F 31:33 10:10
100 5/9 318 Sarah Person 27 F 31:33 10:10
101 8/29 359 Jennifer Kersten 42 F 31:35 10:10
102 9/11 191 Adam Meyer 38 M 31:48 10:15
103 13/29 362 Monika Londono 36 F 32:02 10:19
104 7/18 102 Paul Bier 64 M 32:03 10:19
105 11/18 253 Troy Zwickle 47 M 32:14 10:23
106 5/15 364 Thomas Allen 71 M 32:23 10:26
107 4/16 132 Maria Dunn 57 F 32:26 10:27
108 1/1 131 Elena Dunn 18 F 32:26 10:27
109 9/29 167 Kristy Howe 43 F 32:44 10:32
110 14/29 140 Lisa Fitzpatrick 37 F 32:50 10:34
111 5/16 123 Cynthia Dean 54 F 32:51 10:35
112 6/16 103 Jean Bojan 55 F 32:51 10:35
113 1/21 216 Dianne Peterson 60 F 32:53 10:35
114 12/18 199 Michael Murphy 46 M 32:56 10:36
115 8/18 101 David L Barlow 65 M 32:56 10:36
116 5/11 335 Kyle Sethre 13 M 33:08 10:40
117 10/29 135 Jennifer Ewert 42 F 33:16 10:43
118 7/16 150 Maureen Geraghty 57 F 33:37 10:49
119 16/21 147 Phil Fulkrod 53 M 33:40 10:50
120 7/15 288 Cam Maki 10 M 33:40 10:50
121 2/21 290 Cheryl McDonald 69 F 33:47 10:53
122 15/29 110 Jennifer Chilcott 37 F 33:48 10:53
123 9/18 224 Roger Rybicka 69 M 33:53 10:55
124 6/15 316 Peter Cacka 71 M 34:04 10:58
125 11/29 282 Jennifer Kingrey 43 F 34:06 10:59
126 8/16 188 Nancy McConkey 54 F 34:23 11:04
127 6/11 358 Holden Wierema 13 M 34:34 11:08
128 7/11 281 Evan Kingrey 12 M 34:35 11:08
129 3/21 328 Shelley Rice 61 F 34:38 11:09
130 6/9 181 Alyssa Lemmo 27 F 35:41 11:30
131 12/29 285 Jaya Lewis 41 F 35:44 11:30
132 8/9 192 Ashlyn Meyer 13 F 35:58 11:35
133 1/6 247 Karen Vetter 70 F 36:00 11:36
134 7/9 209 Kevin Otte 29 M 36:00 11:36
135 13/29 237 Kelly Swetich 46 F 36:02 11:36
136 7/15 265 Jonathan Platt 71 M 36:21 11:42
137 4/8 139 Jaden Fitzpatrick 11 F 36:22 11:43
138 14/29 178 Cindy Langley 47 F 36:39 11:48
139 16/29 2299 Sarah Drosser 38 F 36:41 11:49
140 8/11 185 Dylan Malone 15 M 36:43 11:49
141 17/29 186 Jennifer Malone 39 F 36:44 11:50
142 18/29 179 Ashlee Leach 38 F 36:47 11:51
143 15/29 305 Sara Taverna 41 F 36:50 11:52
144 16/29 120 Rachael Davis 45 F 36:57 11:54
145 10/18 372 Erik Pape 60 M 37:14 11:59
146 10/11 304 Randy Taverna 38 M 37:24 12:03
147 8/15 297 Trevor Scheele 11 M 37:30 12:04
148 17/21 197 Randy Moore 54 M 37:31 12:05
149 9/15 294 Cooper Pflieger 11 M 37:33 12:06
150 4/21 180 Bronwyn Leach 62 F 37:43 12:09
151 10/15 299 Walker Simimer 11 M 37:48 12:10
152 9/16 262 Alicia Miodonski 50 F 37:51 12:11
153 17/29 231 Kim Smith 40 F 37:52 12:12
154 8/15 356 Adrian Martinez 70 M 37:55 12:12
155 7/9 146 Jackie Fulkrod 29 F 38:01 12:15
156 11/15 307 Ryan Ward 11 M 38:09 12:17
157 19/29 151 Kelsey Geyer 31 F 38:14 12:19
158 5/8 205 Caslyn Nichols 9 F 38:17 12:20
159 9/11 306 Sean Togher 12 M 38:20 12:21
160 12/15 303 Anthony Taverna 10 M 38:22 12:21
161 20/29 145 April Freitag 32 F 38:26 12:22
162 11/18 244 Jo Vanhorn 68 M 38:31 12:24
163 3/4 170 Lincoln Jacoway 17 M 38:39 12:27
164 21/29 370 Sarah Quist 37 F 38:42 12:28
165 18/29 115 Deanna Daly 47 F 38:44 12:28
166 19/29 225 Jennifer Schiller 45 F 38:45 12:29
167 9/15 127 Gerald Delap 80 M 38:56 12:32
168 13/18 323 Zach Gilbert 40 M 39:00 12:34
169 20/29 105 Carrie Burgess 45 F 39:25 12:41
170 18/21 106 Jeff Burgess 57 M 39:25 12:42
171 11/11 371 John Quist 39 M 39:45 12:48
172 22/29 312 Amanda Fonferek 33 F 40:19 12:59
173 21/29 138 Paula Finan 49 F 40:40 13:06
174 10/16 350 Robyn Hess 53 F 41:07 13:14
175 14/18 111 Matthew Chilcott 40 M 41:16 13:17
176 4/4 331 John Tupley 17 M 41:17 13:18
177 8/9 341 Tyler McDonald 21 M 41:19 13:18
178 5/21 173 Karea Johnson 62 F 41:26 13:21
179 23/29 107 Holly Cable 35 F 41:37 13:24
180 6/21 121 Marsha Dawkins 67 F 41:51 13:28
181 19/21 126 Dean Dekrey 58 M 41:56 13:30
182 24/29 172 Buffy Johnson 38 F 43:30 14:00
183 25/29 345 Rebecca Kelly 31 F 43:53 14:08
184 9/9 293 Avery Pflieger 15 F 44:02 14:11
185 22/29 295 Sarah Pflieger 44 F 44:05 14:12
186 10/11 314 Tanner Laugel 14 M 44:06 14:12
187 13/15 255 Brenner Cordova 10 M 44:10 14:13
188 26/29 163 Tegan Hollen 32 F 45:11 14:33
189 15/18 207 Lloyd Nichols 43 M 45:23 14:37
190 23/29 204 Carol Nichols 42 F 45:23 14:37
191 2/3 201 Colin Murphy 5 M 46:47 15:04
192 24/29 200 Renee Murphy 43 F 46:48 15:04
193 25/29 313 Mindy Laugel 46 F 47:11 15:12
194 2/6 128 Nancy Delap 77 F 47:12 15:12
195 7/21 174 Kathryn Jordan 60 F 47:17 15:14
196 10/15 355 Karl Robertson 78 M 47:24 15:16
197 8/21 352 Mary Ehrgard 66 F 47:39 15:21
198 26/29 184 Amy Maiberger 42 F 48:58 15:46
199 8/9 373 Sheena Yohn 25 F 48:58 15:46
200 11/16 347 Diane Mohn 56 F 48:58 15:46
201 11/15 258 Conrad Dziewulski 76 M 49:03 15:48
202 12/18 161 Jeffrey Hashberger 61 M 49:30 15:56
203 12/16 162 Rose Hashberger 56 F 49:30 15:56
204 14/15 301 Benjamin Sundheim 10 M 49:34 15:57
205 9/21 113 Judy Cummings 68 F 49:35 15:58
206 13/18 158 Eldon Haines 69 M 49:43 16:01
207 16/18 302 Scott Sundheim 42 M 49:48 16:02
208 12/15 2498 Ronald Williams 73 M 50:27 16:15
209 13/15 217 Jim Peterson 78 M 50:28 16:15
210 10/21 195 Diana Montgomery 68 F 50:38 16:18
211 14/15 196 Robert Montgomery 75 M 50:38 16:18
212 6/8 249 Brezenety Wiley 10 F 51:27 16:34
213 27/29 241 Jenifer Valland 39 F 52:10 16:48
214 27/29 122 Heather Deal 43 F 52:10 16:48
215 14/18 349 Robert Walch 63 M 52:30 16:54
216 11/21 227 Pam Sheeler 63 F 53:20 17:10
217 12/21 239 Debbie Teetzel 62 F 53:20 17:10
218 13/21 114 Kathy Dalton 67 F 53:26 17:12
219 3/6 187 Donna McCloe 74 F 53:26 17:12
220 14/21 240 Ellen Thornwall 61 F 53:35 17:15
221 20/21 118 Ken Danielson 51 M 54:03 17:24
222 13/16 119 Lisa Danielson 51 F 54:05 17:25
223 14/16 144 Maureen Fleegal 52 F 54:05 17:25
224 21/21 143 Brett Fleegal 53 M 54:05 17:25
225 4/6 315 Dee Cacka 73 F 54:21 17:30
226 17/18 284 Brad Lewis 41 M 54:35 17:34
227 11/11 275 Jonas Gunther 14 M 54:35 17:34
228 15/18 229 Richard Siebold 61 M 55:31 17:52
229 9/9 230 Stephen Siebold 25 M 55:31 17:52
230 3/3 219 Christian Price 7 M 55:38 17:55
231 9/9 226 Syehee Schroeder 27 F 55:38 17:55
232 15/21 266 Maureen Bray 66 F 55:58 18:01
233 16/18 267 Scott Bray 68 M 55:59 18:01
234 16/21 264 Cindy Platt 63 F 56:21 18:09
235 15/16 171 Tammy Jacoway 51 F 56:22 18:09
236 17/21 141 Colleen Fjeseth 66 F 56:22 18:09
237 5/6 277 Barb Jacobsen 73 F 56:25 18:10
238 17/18 142 Steve Fjeseth 65 M 56:35 18:13
239 18/21 213 Patricia Palmer 66 F 56:59 18:21
240 18/18 212 Joseph Palmer 44 M 57:00 18:21
241 18/18 211 Gordon Palmer 68 M 57:00 18:21
242 15/15 311 Jack Laugel 11 M 57:02 18:22
243 28/29 366 Ellen Defossez 31 F 57:13 18:25
244 19/21 177 Mary Kubicki 65 F 57:13 18:25
245 28/29 176 Karla Kathan 48 F 58:49 18:56
246 15/15 232 John Steinman 71 M 58:49 18:56
247 20/21 243 Suzanne Vanderborgt 60 F 59:21 19:07
248 7/8 190 Nazahyla McGrew 11 F 59:49 19:15
249 29/29 234 Nichole Stover 31 F 1:00:06 19:21
250 29/29 322 Jackie Gilbert 41 F 1:01:33 19:49
251 16/16 149 Trisha Gardner 50 F 1:01:53 19:55
252 6/6 189 Linda McDowell 73 F 1:01:58 19:57
253 8/8 116 Hazel Daly 10 F 1:06:34 21:26
254 21/21 130 Eileen Donahue 69 F 1:07:08 21:37